createdAt,value
2023-03-12T00:01:40.613Z,12.87
2023-03-12T00:04:42.007Z,10.07
2023-03-12T00:07:43.405Z,9.87
2023-03-12T00:10:44.823Z,11.30
2023-03-12T00:13:52.807Z,10.30
2023-03-12T00:16:55.670Z,8.80
2023-03-12T00:19:57.074Z,8.70
2023-03-12T00:22:58.533Z,11.97
2023-03-12T00:26:05.966Z,8.23
2023-03-12T00:29:07.393Z,13.00
2023-03-12T00:32:08.890Z,7.33
2023-03-12T00:35:10.623Z,9.43
2023-03-12T00:38:12.025Z,8.47
2023-03-12T00:41:13.444Z,7.73
2023-03-12T00:44:14.926Z,7.27
2023-03-12T00:47:16.350Z,6.47
2023-03-12T00:50:17.846Z,8.87
2023-03-12T00:53:19.407Z,8.00
2023-03-12T00:56:20.985Z,9.23
2023-03-12T00:59:22.564Z,9.93
2023-03-12T01:02:24.014Z,7.97
2023-03-12T01:05:25.482Z,7.40
2023-03-12T01:08:27.286Z,8.43
2023-03-12T01:11:29.296Z,8.23
2023-03-12T01:14:30.896Z,7.53
2023-03-12T01:17:32.425Z,7.70
2023-03-12T01:20:33.978Z,6.67
2023-03-12T01:23:35.378Z,9.07
2023-03-12T01:26:36.773Z,6.40
2023-03-12T01:29:38.150Z,6.90
2023-03-12T01:32:39.717Z,6.73
2023-03-12T01:35:41.696Z,7.23
2023-03-12T01:38:43.274Z,10.87
2023-03-12T01:41:44.691Z,6.43
2023-03-12T01:45:00.080Z,10.07
2023-03-12T01:48:03.237Z,8.67
2023-03-12T01:51:05.779Z,7.97
2023-03-12T01:54:13.419Z,8.27
2023-03-12T01:57:20.846Z,6.43
2023-03-12T02:00:25.714Z,5.80
2023-03-12T02:03:31.464Z,5.93
2023-03-12T02:06:38.830Z,4.60
2023-03-12T02:09:45.135Z,7.97
2023-03-12T02:12:46.616Z,6.27
2023-03-12T02:15:48.113Z,8.93
2023-03-12T02:18:52.541Z,6.33
2023-03-12T02:21:54.017Z,7.93
2023-03-12T02:25:06.776Z,7.70
2023-03-12T02:28:12.490Z,5.87
2023-03-12T02:31:18.170Z,7.40
2023-03-12T02:34:19.751Z,7.77
2023-03-12T02:37:21.368Z,7.57
2023-03-12T02:40:27.390Z,4.03
2023-03-12T02:43:29.103Z,4.23
2023-03-12T02:46:36.179Z,6.77
2023-03-12T02:49:37.943Z,6.77
2023-03-12T02:52:39.978Z,4.30
2023-03-12T02:55:41.481Z,2.90
2023-03-12T02:58:42.991Z,7.80
2023-03-12T03:01:45.184Z,6.47
2023-03-12T03:04:47.155Z,6.00
2023-03-12T03:07:48.674Z,5.60
2023-03-12T03:10:52.270Z,2.63
2023-03-12T03:13:55.019Z,6.27
2023-03-12T03:16:57.083Z,4.63
2023-03-12T03:19:58.532Z,5.20
2023-03-12T03:22:59.980Z,3.27
2023-03-12T03:26:01.862Z,4.63
2023-03-12T03:29:03.525Z,4.67
2023-03-12T03:32:05.594Z,4.77
2023-03-12T03:35:07.374Z,4.87
2023-03-12T03:38:08.907Z,4.13
2023-03-12T03:41:10.660Z,4.70
2023-03-12T03:44:16.978Z,5.30
2023-03-12T03:47:18.545Z,5.57
2023-03-12T03:50:20.083Z,6.00
2023-03-12T03:53:21.694Z,5.23
2023-03-12T03:56:23.266Z,4.27
2023-03-12T03:59:25.356Z,7.53
2023-03-12T04:02:28.257Z,5.77
2023-03-12T04:05:29.911Z,7.13
2023-03-12T04:08:32.919Z,6.43
2023-03-12T04:11:34.519Z,7.60
2023-03-12T04:14:40.684Z,6.57
2023-03-12T04:17:42.774Z,6.83
2023-03-12T04:20:45.114Z,9.50
2023-03-12T04:23:46.572Z,9.90
2023-03-12T04:26:49.648Z,6.93
2023-03-12T04:29:51.172Z,6.83
2023-03-12T04:32:54.092Z,7.90
2023-03-12T04:35:56.541Z,6.80
2023-03-12T04:38:58.183Z,8.07
2023-03-12T04:42:04.095Z,6.90
2023-03-12T04:45:06.764Z,7.87
2023-03-12T04:48:10.854Z,8.50
2023-03-12T04:51:12.276Z,7.73
2023-03-12T04:54:14.038Z,8.03
2023-03-12T04:57:17.028Z,9.07
2023-03-12T05:00:18.758Z,7.27
2023-03-12T05:03:21.412Z,9.73
2023-03-12T05:06:24.416Z,8.93
2023-03-12T05:09:26.568Z,9.77
2023-03-12T05:12:28.074Z,6.27
2023-03-12T05:15:29.517Z,9.33
2023-03-12T05:18:31.822Z,11.23
2023-03-12T05:21:33.408Z,9.63
2023-03-12T05:24:35.614Z,9.07
2023-03-12T05:27:37.478Z,10.60
2023-03-12T05:30:39.985Z,6.67
2023-03-12T05:33:41.643Z,11.00
2023-03-12T05:36:43.846Z,10.03
2023-03-12T05:39:49.293Z,10.37
2023-03-12T05:42:53.024Z,7.53
2023-03-12T05:46:04.513Z,7.57
2023-03-12T05:49:08.344Z,9.97
2023-03-12T05:52:10.555Z,7.70
2023-03-12T05:55:11.949Z,8.97
2023-03-12T05:58:13.459Z,9.43
2023-03-12T06:01:20.752Z,11.13
2023-03-12T06:04:22.638Z,9.83
2023-03-12T06:07:24.557Z,10.43
2023-03-12T06:10:26.051Z,10.73
2023-03-12T06:13:28.313Z,8.80
2023-03-12T06:16:31.205Z,8.77
2023-03-12T06:19:32.805Z,11.77
2023-03-12T06:22:34.577Z,13.93
2023-03-12T06:25:36.004Z,11.73
2023-03-12T06:28:38.811Z,9.43
2023-03-12T06:31:41.990Z,11.93
2023-03-12T06:34:43.429Z,8.87
2023-03-12T06:37:44.849Z,9.00
2023-03-12T06:41:00.611Z,8.50
2023-03-12T06:44:05.871Z,9.43
2023-03-12T06:47:07.345Z,12.10
2023-03-12T06:50:09.482Z,10.20
2023-03-12T06:53:10.947Z,13.07
2023-03-12T06:56:13.469Z,12.00
2023-03-12T06:59:14.912Z,8.67
2023-03-12T07:02:16.358Z,7.93
2023-03-12T07:05:17.832Z,9.17
2023-03-12T07:08:19.247Z,10.03
2023-03-12T07:11:20.827Z,7.47
2023-03-12T07:14:22.236Z,7.80
2023-03-12T07:17:24.503Z,8.27
2023-03-12T07:20:26.049Z,8.83
2023-03-12T07:23:28.028Z,10.87
2023-03-12T07:26:29.432Z,9.40
2023-03-12T07:29:30.806Z,9.67
2023-03-12T07:32:33.511Z,8.77
2023-03-12T07:35:35.481Z,11.43
2023-03-12T07:38:37.186Z,7.87
2023-03-12T07:41:39.017Z,8.97
2023-03-12T07:44:40.406Z,9.27
2023-03-12T07:47:41.936Z,8.80
2023-03-12T07:50:43.429Z,8.67
2023-03-12T07:53:44.856Z,9.50
2023-03-12T07:56:46.401Z,9.23
2023-03-12T07:59:48.210Z,12.10
2023-03-12T08:02:50.271Z,9.30
2023-03-12T08:06:00.621Z,12.57
2023-03-12T08:09:02.070Z,12.67
2023-03-12T08:12:03.704Z,10.73
2023-03-12T08:15:08.265Z,9.47
2023-03-12T08:18:10.038Z,12.03
2023-03-12T08:21:11.502Z,11.63
2023-03-12T08:24:12.922Z,11.87
2023-03-12T08:27:14.486Z,10.47
2023-03-12T08:30:16.259Z,9.37
2023-03-12T08:33:18.009Z,12.73
2023-03-12T08:36:21.937Z,12.60
2023-03-12T08:39:23.785Z,12.23
2023-03-12T08:42:25.201Z,10.33
2023-03-12T08:45:26.759Z,11.10
2023-03-12T08:48:29.587Z,10.23
2023-03-12T08:51:31.050Z,10.17
2023-03-12T08:54:32.631Z,10.43
2023-03-12T08:57:34.196Z,10.53
2023-03-12T09:00:35.940Z,10.13
2023-03-12T09:03:37.621Z,9.93
2023-03-12T09:06:39.095Z,11.70
2023-03-12T09:09:40.533Z,12.53
2023-03-12T09:12:42.070Z,15.00
2023-03-12T09:15:43.769Z,11.40
2023-03-12T09:18:45.237Z,9.50
2023-03-12T09:21:46.618Z,9.47
2023-03-12T09:24:48.000Z,10.67
2023-03-12T09:27:49.492Z,11.37
2023-03-12T09:30:51.342Z,8.53
2023-03-12T09:33:52.776Z,12.70
2023-03-12T09:36:54.939Z,10.47
2023-03-12T09:39:56.333Z,14.53
2023-03-12T09:43:13.527Z,13.53
2023-03-12T09:46:20.703Z,12.33
2023-03-12T09:49:46.750Z,14.70
2023-03-12T09:53:04.466Z,9.00
2023-03-12T09:56:10.162Z,8.83
2023-03-12T09:59:13.026Z,11.80
2023-03-12T10:02:37.165Z,14.73
2023-03-12T10:05:44.711Z,11.40
2023-03-12T10:09:24.240Z,13.53
2023-03-12T10:12:52.161Z,13.47
2023-03-12T10:16:20.706Z,12.23
2023-03-12T10:19:47.243Z,13.53
2023-03-12T10:22:59.959Z,10.50
2023-03-12T10:26:17.223Z,11.87
2023-03-12T10:29:35.606Z,10.80
2023-03-12T10:32:48.068Z,9.20
2023-03-12T10:35:50.483Z,12.17
2023-03-12T10:38:51.984Z,11.10
2023-03-12T10:42:00.260Z,10.80
2023-03-12T10:45:17.751Z,10.60
2023-03-12T10:48:21.966Z,11.63
2023-03-12T10:51:23.342Z,10.23
2023-03-12T10:54:31.851Z,10.83
2023-03-12T10:57:41.386Z,10.67
2023-03-12T11:00:56.682Z,10.10
2023-03-12T11:04:18.265Z,11.97
2023-03-12T11:07:27.772Z,12.13
2023-03-12T11:10:32.997Z,12.67
2023-03-12T11:13:38.838Z,12.97
2023-03-12T11:16:40.271Z,12.20
2023-03-12T11:19:41.938Z,11.37
2023-03-12T11:22:43.391Z,13.83
2023-03-12T11:25:52.101Z,12.53
2023-03-12T11:29:03.218Z,14.70
2023-03-12T11:32:29.968Z,12.53
2023-03-12T11:35:45.332Z,10.57
2023-03-12T11:39:07.561Z,10.37
2023-03-12T11:42:20.667Z,11.20
2023-03-12T11:45:46.745Z,8.30
2023-03-12T11:49:09.458Z,8.27
2023-03-12T11:52:20.788Z,8.77
2023-03-12T11:55:38.064Z,9.73
2023-03-12T11:58:53.166Z,9.23
2023-03-12T12:02:11.760Z,11.67
2023-03-12T12:05:32.047Z,11.17
2023-03-12T12:08:43.846Z,9.27
2023-03-12T12:12:05.576Z,9.57
2023-03-12T12:15:15.990Z,8.50
2023-03-12T12:19:08.428Z,11.10
2023-03-12T12:22:37.190Z,11.27
2023-03-12T12:25:52.618Z,10.23
2023-03-12T12:29:22.082Z,8.73
2023-03-12T12:33:00.119Z,7.00
2023-03-12T12:36:02.556Z,9.47
2023-03-12T12:39:30.962Z,7.93
2023-03-12T12:42:36.367Z,7.57
2023-03-12T12:45:40.873Z,9.50
2023-03-12T12:48:53.683Z,7.07
2023-03-12T12:52:03.281Z,8.30
2023-03-12T12:55:22.588Z,8.53
2023-03-12T12:58:29.536Z,6.97
2023-03-12T13:01:34.044Z,6.50
2023-03-12T13:04:38.466Z,7.57
2023-03-12T13:07:39.907Z,5.77
2023-03-12T13:10:52.997Z,6.30
2023-03-12T13:14:02.273Z,6.77
2023-03-12T13:17:28.972Z,7.07
2023-03-12T13:20:53.388Z,6.93
2023-03-12T13:24:11.933Z,10.40
2023-03-12T13:27:31.237Z,6.60
2023-03-12T13:30:32.559Z,6.07
2023-03-12T13:33:45.271Z,6.83
2023-03-12T13:36:50.341Z,7.50
2023-03-12T13:39:51.826Z,7.83
2023-03-12T13:43:09.667Z,7.83
2023-03-12T13:46:34.904Z,11.33
2023-03-12T13:49:41.596Z,6.30
2023-03-12T13:53:00.505Z,8.40
2023-03-12T13:56:14.494Z,8.20
2023-03-12T13:59:19.179Z,12.23
2023-03-12T14:02:49.968Z,7.97
2023-03-12T14:06:05.778Z,11.90
2023-03-12T14:09:24.150Z,10.47
2023-03-12T14:12:53.443Z,8.03
2023-03-12T14:16:30.454Z,8.67
2023-03-12T14:19:35.014Z,7.00
2023-03-12T14:22:39.399Z,11.13
2023-03-12T14:25:46.179Z,11.83
2023-03-12T14:28:54.744Z,12.07
2023-03-12T14:32:02.028Z,9.67
2023-03-12T14:35:12.377Z,11.53
2023-03-12T14:38:21.556Z,10.77
2023-03-12T14:41:29.934Z,8.30
2023-03-12T14:44:33.297Z,12.47
2023-03-12T14:47:46.001Z,13.00
2023-03-12T14:50:48.663Z,13.00
2023-03-12T14:53:51.194Z,12.27
2023-03-12T14:56:52.720Z,12.77
2023-03-12T14:59:57.874Z,8.93
2023-03-12T15:03:04.368Z,13.97
2023-03-12T15:06:13.966Z,10.43
2023-03-12T15:09:24.752Z,12.73
2023-03-12T15:12:33.176Z,10.53
2023-03-12T15:15:43.990Z,10.57
2023-03-12T15:18:47.439Z,13.60
2023-03-12T15:21:50.451Z,12.93
2023-03-12T15:24:51.903Z,12.80
2023-03-12T15:28:11.485Z,12.50
2023-03-12T15:31:15.997Z,12.07
2023-03-12T15:34:36.261Z,8.43
2023-03-12T15:37:41.074Z,13.20
2023-03-12T15:40:48.996Z,11.00
2023-03-12T15:43:54.876Z,11.07
2023-03-12T15:47:11.192Z,11.17
2023-03-12T15:50:18.740Z,12.23
2023-03-12T15:53:20.115Z,12.30
2023-03-12T15:56:23.385Z,16.67
2023-03-12T15:59:28.450Z,11.83
2023-03-12T16:02:38.262Z,12.67
2023-03-12T16:05:40.045Z,10.50
2023-03-12T16:08:46.294Z,15.63
2023-03-12T16:11:48.424Z,13.63
2023-03-12T16:14:49.863Z,15.83
2023-03-12T16:17:51.335Z,14.83
2023-03-12T16:20:53.235Z,12.37
2023-03-12T16:23:54.719Z,10.93
2023-03-12T16:26:59.862Z,12.60
2023-03-12T16:30:01.277Z,10.60
2023-03-12T16:33:08.957Z,19.40
2023-03-12T16:36:16.588Z,9.43
2023-03-12T16:39:18.997Z,14.70
2023-03-12T16:42:20.913Z,11.03
2023-03-12T16:45:22.971Z,16.90
2023-03-12T16:48:24.708Z,14.40
2023-03-12T16:51:28.204Z,14.73
2023-03-12T16:54:29.573Z,12.90
2023-03-12T16:57:36.999Z,18.27
2023-03-12T17:00:38.547Z,9.73
2023-03-12T17:03:43.620Z,16.47
2023-03-12T17:06:45.159Z,9.23
2023-03-12T17:09:46.672Z,12.00
2023-03-12T17:12:48.583Z,13.03
2023-03-12T17:15:51.364Z,14.73
2023-03-12T17:18:53.131Z,10.33
2023-03-12T17:21:55.124Z,13.77
2023-03-12T17:24:56.542Z,10.03
2023-03-12T17:27:59.005Z,14.37
2023-03-12T17:31:00.577Z,15.00
2023-03-12T17:34:03.828Z,11.87
2023-03-12T17:37:05.404Z,10.07
2023-03-12T17:40:09.005Z,14.47
2023-03-12T17:43:10.860Z,13.30
2023-03-12T17:46:12.281Z,15.17
2023-03-12T17:49:13.786Z,10.70
2023-03-12T17:52:15.200Z,11.30
2023-03-12T17:55:16.637Z,11.73
2023-03-12T17:58:18.108Z,13.03
2023-03-12T18:01:19.672Z,14.17
2023-03-12T18:04:21.137Z,14.53
2023-03-12T18:07:22.640Z,15.43
2023-03-12T18:10:24.139Z,14.07
2023-03-12T18:13:25.540Z,11.10
2023-03-12T18:16:27.055Z,13.70
2023-03-12T18:19:29.336Z,13.93
2023-03-12T18:22:30.846Z,11.90
2023-03-12T18:25:32.297Z,13.43
2023-03-12T18:28:33.767Z,14.53
2023-03-12T18:31:35.256Z,12.17
2023-03-12T18:34:37.560Z,25.47
2023-03-12T18:37:38.975Z,18.63
2023-03-12T18:40:40.405Z,17.73
2023-03-12T18:43:42.134Z,14.43
2023-03-12T18:46:43.666Z,12.00
2023-03-12T18:49:45.368Z,13.13
2023-03-12T18:52:46.791Z,16.07
2023-03-12T18:55:56.576Z,18.23
2023-03-12T18:58:58.000Z,14.00
2023-03-12T19:02:00.165Z,15.70
2023-03-12T19:05:03.878Z,12.80
2023-03-12T19:08:06.014Z,17.23
2023-03-12T19:11:10.383Z,17.30
2023-03-12T19:14:12.331Z,17.73
2023-03-12T19:17:13.756Z,15.73
2023-03-12T19:20:15.654Z,15.23
2023-03-12T19:23:17.076Z,16.30
2023-03-12T19:26:18.470Z,21.10
2023-03-12T19:29:21.357Z,16.87
2023-03-12T19:32:25.405Z,16.07
2023-03-12T19:35:29.287Z,36.67
2023-03-12T19:38:30.878Z,24.20
2023-03-12T19:41:32.250Z,20.37
2023-03-12T19:44:36.145Z,18.20
2023-03-12T19:47:37.791Z,23.10
2023-03-12T19:50:39.227Z,16.80
2023-03-12T19:53:40.846Z,17.27
2023-03-12T19:56:42.227Z,24.40
2023-03-12T19:59:43.615Z,21.53
2023-03-12T20:02:46.045Z,19.97
2023-03-12T20:05:47.609Z,19.87
2023-03-12T20:08:49.159Z,31.07
2023-03-12T20:11:50.583Z,31.17
2023-03-12T20:14:51.978Z,28.53
2023-03-12T20:17:59.463Z,30.07
2023-03-12T20:21:01.079Z,32.03
2023-03-12T20:24:02.678Z,35.70
2023-03-12T20:27:04.439Z,29.10
2023-03-12T20:30:06.531Z,33.83
2023-03-12T20:33:08.361Z,31.80
2023-03-12T20:36:12.424Z,25.17
2023-03-12T20:39:13.981Z,19.23
2023-03-12T20:42:15.383Z,17.23
2023-03-12T20:45:16.880Z,16.50
2023-03-12T20:48:18.542Z,14.27
2023-03-12T20:51:20.015Z,14.70
2023-03-12T20:54:21.668Z,12.57
2023-03-12T20:57:23.056Z,9.93
2023-03-12T21:00:24.578Z,12.87
2023-03-12T21:03:25.986Z,11.87
2023-03-12T21:06:27.903Z,9.83
2023-03-12T21:09:29.290Z,13.70
2023-03-12T21:12:30.747Z,15.63
2023-03-12T21:15:32.159Z,11.90
2023-03-12T21:18:33.655Z,12.97
2023-03-12T21:21:36.345Z,15.70
2023-03-12T21:24:37.888Z,12.80
2023-03-12T21:27:49.977Z,12.93
2023-03-12T21:30:52.339Z,10.77
2023-03-12T21:33:57.880Z,13.40
2023-03-12T21:36:59.362Z,15.77
2023-03-12T21:40:01.452Z,15.20
2023-03-12T21:43:03.374Z,20.77
2023-03-12T21:46:06.918Z,21.83
2023-03-12T21:49:08.485Z,16.50
2023-03-12T21:52:10.011Z,18.50
2023-03-12T21:55:11.416Z,15.57
2023-03-12T21:58:12.868Z,14.00
2023-03-12T22:01:16.837Z,13.40
2023-03-12T22:04:18.418Z,11.47
2023-03-12T22:07:19.881Z,14.10
2023-03-12T22:10:21.254Z,11.33
2023-03-12T22:13:23.070Z,16.37
2023-03-12T22:16:24.568Z,14.77
2023-03-12T22:19:26.108Z,15.67
2023-03-12T22:22:27.566Z,12.97
2023-03-12T22:25:29.014Z,17.10
2023-03-12T22:28:31.798Z,14.50
2023-03-12T22:31:33.554Z,14.40
2023-03-12T22:34:35.182Z,11.33
2023-03-12T22:37:36.578Z,16.83
2023-03-12T22:40:38.289Z,12.27
2023-03-12T22:43:39.766Z,14.83
2023-03-12T22:46:41.230Z,12.17
2023-03-12T22:49:42.678Z,14.30
2023-03-12T22:52:44.058Z,12.93
2023-03-12T22:55:45.445Z,10.23
2023-03-12T22:58:47.636Z,10.97
2023-03-12T23:01:49.077Z,11.03
2023-03-12T23:04:50.526Z,12.90
2023-03-12T23:07:52.015Z,14.93
2023-03-12T23:10:58.622Z,13.90
2023-03-12T23:14:00.043Z,15.70
2023-03-12T23:17:01.518Z,14.77
2023-03-12T23:20:04.777Z,13.90
2023-03-12T23:23:06.292Z,8.93
2023-03-12T23:26:08.275Z,12.10
2023-03-12T23:29:12.689Z,12.57
2023-03-12T23:32:14.186Z,12.47
2023-03-12T23:35:15.800Z,11.67
2023-03-12T23:38:17.261Z,9.47
2023-03-12T23:41:24.611Z,17.23
2023-03-12T23:44:26.170Z,11.20
2023-03-12T23:47:27.616Z,11.87
2023-03-12T23:50:29.024Z,13.67
2023-03-12T23:53:30.649Z,13.83
2023-03-12T23:56:35.847Z,12.20
2023-03-12T23:59:37.236Z,16.60
